Time;durP1;ratioP1;P1;durP2;ratioP2;P2;SDS_P1;SDS_P2;PMS_P1;PMS_P2;Temp;Humidity;BMP_temperature;BMP_pressure;BME280_temperature;BME280_humidity;BME280_pressure;Samples;Min_cycle;Max_cycle;Signal;HPM_P1;HPM_P2
2021/05/01 00:00:34;;;;;;;13.47;12.33;;;9.30;99.90;;;;;;4926079;29;20450;-81
2021/05/01 00:03:02;;;;;;;12.80;11.70;;;9.30;99.90;;;;;;4925427;29;20479;-81
2021/05/01 00:05:30;;;;;;;13.98;12.77;;;9.30;99.90;;;;;;4931351;29;20423;-81
2021/05/01 00:07:57;;;;;;;13.83;12.53;;;9.30;99.90;;;;;;4924215;29;20295;-81
2021/05/01 00:10:25;;;;;;;14.30;12.87;;;9.30;99.90;;;;;;4923906;29;20463;-81
2021/05/01 00:12:53;;;;;;;14.83;13.53;;;9.30;99.90;;;;;;4934111;29;20491;-81
2021/05/01 00:15:20;;;;;;;14.90;13.50;;;9.30;99.90;;;;;;4944243;29;20471;-82
2021/05/01 00:17:47;;;;;;;13.37;12.07;;;9.30;99.90;;;;;;4944961;29;20204;-80
2021/05/01 00:20:17;;;;;;;13.40;12.00;;;9.30;99.90;;;;;;4942722;29;20834;-80
2021/05/01 00:22:45;;;;;;;14.50;13.10;;;9.30;99.90;;;;;;4942905;29;20475;-80
2021/05/01 00:25:13;;;;;;;13.70;12.50;;;9.20;99.90;;;;;;4933615;29;20487;-80
2021/05/01 00:27:42;;;;;;;14.93;13.50;;;9.20;99.90;;;;;;4925286;29;20506;-80
2021/05/01 00:30:10;;;;;;;14.70;13.50;;;9.20;99.90;;;;;;4940468;29;20488;-80
2021/05/01 00:32:38;;;;;;;14.43;13.13;;;9.20;99.90;;;;;;4926918;29;20470;-80
2021/05/01 00:35:06;;;;;;;17.10;15.50;;;9.20;99.90;;;;;;4923861;29;20500;-80
2021/05/01 00:37:33;;;;;;;15.73;14.23;;;9.20;99.90;;;;;;4924596;29;20470;-80
2021/05/01 00:40:00;;;;;;;16.90;15.30;;;9.20;99.90;;;;;;4927084;29;20459;-80
2021/05/01 00:42:28;;;;;;;16.07;14.67;;;9.20;99.90;;;;;;4933673;29;21072;-80
2021/05/01 00:44:55;;;;;;;16.70;15.20;;;9.20;99.90;;;;;;4939142;29;20484;-80
2021/05/01 00:47:23;;;;;;;16.97;15.37;;;9.20;99.90;;;;;;4937143;29;20483;-80
2021/05/01 00:49:50;;;;;;;18.37;16.57;;;9.20;99.90;;;;;;4925461;29;20444;-80
2021/05/01 00:52:21;;;;;;;18.27;16.57;;;9.20;99.90;;;;;;4924260;29;20477;-82
2021/05/01 00:54:48;;;;;;;16.27;14.77;;;9.20;99.90;;;;;;4929030;29;20521;-81
2021/05/01 00:57:15;;;;;;;17.50;15.87;;;9.20;99.90;;;;;;4944297;29;20447;-80
2021/05/01 00:59:42;;;;;;;16.20;14.80;;;9.10;99.90;;;;;;4943515;29;20446;-80
2021/05/01 01:02:12;;;;;;;18.30;16.63;;;9.10;99.90;;;;;;4941889;29;20803;-80
2021/05/01 01:04:42;;;;;;;17.40;15.80;;;9.10;99.90;;;;;;4922776;29;20451;-80
2021/05/01 01:07:09;;;;;;;17.30;15.70;;;9.10;99.90;;;;;;4923138;29;20455;-80
2021/05/01 01:09:37;;;;;;;17.00;15.40;;;9.10;99.90;;;;;;4923301;29;20457;-80
2021/05/01 01:12:08;;;;;;;16.70;15.17;;;9.10;99.90;;;;;;4927817;29;20496;-80
2021/05/01 01:14:35;;;;;;;16.60;15.00;;;9.10;99.90;;;;;;4942929;29;20965;-81
2021/05/01 01:17:04;;;;;;;16.67;15.17;;;9.10;99.90;;;;;;4942687;29;20482;-81
2021/05/01 01:19:37;;;;;;;16.83;15.33;;;9.20;99.90;;;;;;4943716;29;20460;-81
2021/05/01 01:22:15;;;;;;;18.87;17.00;;;9.10;99.90;;;;;;4947676;29;20464;-81
2021/05/01 01:24:42;;;;;;;19.70;17.90;;;9.10;99.90;;;;;;4945245;29;20506;-81
2021/05/01 01:27:10;;;;;;;19.65;17.85;;;9.10;99.90;;;;;;4941688;29;20457;-81
2021/05/01 01:29:41;;;;;;;19.13;17.23;;;9.20;99.90;;;;;;4941976;29;20234;-81
2021/05/01 01:32:10;;;;;;;17.30;15.70;;;9.10;99.90;;;;;;4943947;29;20463;-81
2021/05/01 01:34:41;;;;;;;18.70;16.80;;;9.20;99.90;;;;;;4943778;29;20460;-82
2021/05/01 01:37:09;;;;;;;20.20;18.30;;;9.10;99.90;;;;;;4928426;29;20479;-81
2021/05/01 01:39:38;;;;;;;19.23;17.23;;;9.20;99.90;;;;;;4938649;29;20658;-81
2021/05/01 01:42:10;;;;;;;19.30;17.40;;;9.20;99.90;;;;;;4933777;29;20579;-81
2021/05/01 01:44:37;;;;;;;20.33;18.40;;;9.20;99.90;;;;;;4942885;29;20540;-82
2021/05/01 01:47:04;;;;;;;21.63;19.37;;;9.10;99.90;;;;;;4942182;29;20479;-80
2021/05/01 01:49:34;;;;;;;23.07;20.87;;;9.10;99.90;;;;;;4942931;29;20794;-80
2021/05/01 01:52:02;;;;;;;23.83;21.47;;;9.10;99.90;;;;;;4935254;29;20456;-80
2021/05/01 01:54:29;;;;;;;23.17;20.87;;;9.20;99.90;;;;;;4922438;29;20495;-80
2021/05/01 01:57:00;;;;;;;24.73;22.23;;;9.10;99.90;;;;;;4922743;29;20512;-80
2021/05/01 01:59:31;;;;;;;25.43;22.90;;;9.10;99.90;;;;;;4924377;29;20477;-80
2021/05/01 02:01:59;;;;;;;25.00;22.50;;;9.10;99.90;;;;;;4936802;29;20980;-80
2021/05/01 02:04:26;;;;;;;26.47;23.80;;;9.10;99.90;;;;;;4940994;29;20462;-80
2021/05/01 02:06:53;;;;;;;26.53;23.93;;;9.10;99.90;;;;;;4940992;29;20505;-81
2021/05/01 02:09:20;;;;;;;30.60;25.30;;;9.10;99.90;;;;;;4931604;29;20555;-80
2021/05/01 02:11:47;;;;;;;29.47;26.70;;;9.10;99.90;;;;;;4923410;29;20460;-80
2021/05/01 02:14:15;;;;;;;26.70;24.00;;;9.10;99.90;;;;;;4941161;29;20454;-80
2021/05/01 02:16:42;;;;;;;30.63;27.53;;;9.10;99.90;;;;;;4940698;29;20586;-80
2021/05/01 02:19:10;;;;;;;26.53;23.87;;;9.10;99.90;;;;;;4941522;29;20565;-80
2021/05/01 02:21:41;;;;;;;26.70;24.10;;;9.10;99.90;;;;;;4941966;29;20458;-81
2021/05/01 02:24:09;;;;;;;27.27;24.47;;;9.10;99.90;;;;;;4947577;29;20481;-79
2021/05/01 02:26:36;;;;;;;27.30;24.47;;;9.10;99.90;;;;;;4942125;29;20427;-80
2021/05/01 02:29:03;;;;;;;27.37;24.53;;;9.00;99.90;;;;;;4942567;29;20554;-80
2021/05/01 02:31:31;;;;;;;27.57;24.87;;;9.00;99.90;;;;;;4942106;29;20482;-80
2021/05/01 02:33:58;;;;;;;27.90;24.90;;;9.00;99.90;;;;;;4924740;29;21013;-80
2021/05/01 02:36:26;;;;;;;26.00;23.20;;;9.00;99.90;;;;;;4921733;29;20220;-80
2021/05/01 02:38:53;;;;;;;25.67;23.03;;;9.00;99.90;;;;;;4927539;29;20458;-80
2021/05/01 02:41:22;;;;;;;26.10;23.30;;;9.00;99.90;;;;;;4942625;29;20439;-81
2021/05/01 02:43:50;;;;;;;25.17;22.57;;;9.00;99.90;;;;;;4930874;29;20495;-81
2021/05/01 02:46:17;;;;;;;27.17;24.27;;;9.00;99.90;;;;;;4924942;29;20452;-81
2021/05/01 02:48:45;;;;;;;26.23;23.73;;;9.00;99.90;;;;;;4944045;28;20469;-79
2021/05/01 02:51:12;;;;;;;26.00;23.30;;;8.90;99.90;;;;;;4940295;29;20472;-80
2021/05/01 02:53:39;;;;;;;24.60;22.20;;;8.90;99.90;;;;;;4949436;29;20991;-80
2021/05/01 02:56:06;;;;;;;26.80;24.20;;;8.90;99.90;;;;;;4932945;29;20472;-80
2021/05/01 02:58:33;;;;;;;25.50;22.80;;;8.90;99.90;;;;;;4930334;29;20543;-80
2021/05/01 03:01:00;;;;;;;26.88;24.15;;;8.90;99.90;;;;;;4931676;29;20455;-80
2021/05/01 03:03:29;;;;;;;23.67;21.23;;;8.90;99.90;;;;;;4924855;29;20362;-80
2021/05/01 03:05:57;;;;;;;25.53;22.93;;;8.90;99.90;;;;;;4921373;29;20546;-80
2021/05/01 03:08:24;;;;;;;25.20;22.63;;;8.80;99.90;;;;;;4922619;29;20496;-81
2021/05/01 03:10:51;;;;;;;25.63;23.10;;;8.80;99.90;;;;;;4922758;29;20539;-81
2021/05/01 03:13:18;;;;;;;25.07;22.50;;;8.80;99.90;;;;;;4921496;29;20497;-81
2021/05/01 03:15:45;;;;;;;27.67;24.83;;;8.80;99.90;;;;;;4922645;29;20579;-81
2021/05/01 03:18:14;;;;;;;27.33;24.50;;;8.80;99.90;;;;;;4935357;29;20461;-80
2021/05/01 03:20:42;;;;;;;26.77;24.10;;;8.80;99.90;;;;;;4940677;29;20505;-80
2021/05/01 03:23:12;;;;;;;27.10;24.30;;;8.80;99.90;;;;;;4939949;29;20474;-80
2021/05/01 03:25:39;;;;;;;28.10;25.20;;;8.70;99.90;;;;;;4934516;29;20497;-80
2021/05/01 03:28:06;;;;;;;26.90;24.20;;;8.70;99.90;;;;;;4928156;29;20456;-80
2021/05/01 03:30:34;;;;;;;26.63;23.93;;;8.70;99.90;;;;;;4920757;29;20463;-80
2021/05/01 03:33:01;;;;;;;27.43;24.63;;;8.70;99.90;;;;;;4921590;29;20469;-81
2021/05/01 03:35:28;;;;;;;25.67;22.97;;;8.70;99.90;;;;;;4921181;29;21008;-81
2021/05/01 03:37:56;;;;;;;26.53;23.87;;;8.70;99.90;;;;;;4922588;29;20491;-80
2021/05/01 03:40:25;;;;;;;26.77;24.20;;;8.70;99.90;;;;;;4922796;29;20506;-80
2021/05/01 03:42:52;;;;;;;28.50;25.57;;;8.70;99.90;;;;;;4923202;29;20495;-80
2021/05/01 03:45:19;;;;;;;27.43;24.60;;;8.70;99.90;;;;;;4924244;29;20487;-80
2021/05/01 03:47:46;;;;;;;27.03;24.30;;;8.70;99.90;;;;;;4924245;29;20499;-80
2021/05/01 03:50:13;;;;;;;29.33;26.33;;;8.70;99.90;;;;;;4924455;29;20470;-80
2021/05/01 03:52:41;;;;;;;27.90;25.10;;;8.70;99.90;;;;;;4940534;29;20513;-80
2021/05/01 03:55:09;;;;;;;30.30;27.20;;;8.70;99.90;;;;;;4943356;29;20476;-80
2021/05/01 03:57:52;;;;;;;31.80;28.40;;;8.60;99.90;;;;;;4943275;29;20461;-80
2021/05/01 04:00:20;;;;;;;31.83;28.27;;;8.60;99.90;;;;;;4944173;29;20444;-80
2021/05/01 04:02:47;;;;;;;32.97;29.07;;;8.60;99.90;;;;;;4945518;29;20478;-80
2021/05/01 04:05:19;;;;;;;32.53;28.90;;;8.60;99.90;;;;;;4924334;29;20890;-80
2021/05/01 04:07:47;;;;;;;32.00;28.60;;;8.60;99.90;;;;;;4940957;29;20538;-80
2021/05/01 04:10:14;;;;;;;31.90;28.60;;;8.60;99.90;;;;;;4944617;29;20514;-80
2021/05/01 04:12:41;;;;;;;31.87;28.50;;;8.60;99.90;;;;;;4944461;29;20554;-80
2021/05/01 04:15:10;;;;;;;31.80;28.40;;;8.60;99.90;;;;;;4943644;29;20448;-80
2021/05/01 04:17:38;;;;;;;32.40;28.90;;;8.60;99.90;;;;;;4943736;29;21020;-80
2021/05/01 04:20:06;;;;;;;30.70;27.67;;;8.50;99.90;;;;;;4944281;29;20968;-80
2021/05/01 04:22:33;;;;;;;31.53;28.33;;;8.60;99.90;;;;;;4933282;29;20666;-80
2021/05/01 04:25:01;;;;;;;34.57;30.90;;;8.60;99.90;;;;;;4938238;29;20446;-80
2021/05/01 04:27:29;;;;;;;35.40;31.73;;;8.60;99.90;;;;;;4925002;29;20453;-80
2021/05/01 04:29:56;;;;;;;33.77;30.27;;;8.60;99.90;;;;;;4924853;29;21020;-80
2021/05/01 04:32:24;;;;;;;33.23;28.80;;;8.60;99.90;;;;;;4924987;29;20509;-80
2021/05/01 04:34:52;;;;;;;33.97;30.27;;;8.60;99.90;;;;;;4942895;29;20466;-80
2021/05/01 04:37:19;;;;;;;36.03;31.70;;;8.60;99.90;;;;;;4932149;29;20485;-80
2021/05/01 04:39:46;;;;;;;31.83;28.33;;;8.60;99.90;;;;;;4943688;29;20542;-80
2021/05/01 04:42:13;;;;;;;31.50;28.07;;;8.60;99.90;;;;;;4945092;29;20458;-80
2021/05/01 04:44:40;;;;;;;32.57;28.53;;;8.60;99.90;;;;;;4944416;29;21053;-81
2021/05/01 04:47:08;;;;;;;32.37;28.97;;;8.60;99.90;;;;;;4944423;29;20467;-81
2021/05/01 04:49:41;;;;;;;31.10;27.80;;;8.60;99.90;;;;;;4944678;29;20521;-81
2021/05/01 04:52:08;;;;;;;29.07;26.07;;;8.60;99.90;;;;;;4943695;29;20496;-81
2021/05/01 04:54:35;;;;;;;30.40;27.20;;;8.60;99.90;;;;;;4924019;29;20509;-80
2021/05/01 04:57:03;;;;;;;29.77;26.77;;;8.60;99.90;;;;;;4924051;29;20938;-80
2021/05/01 04:59:30;;;;;;;29.43;26.37;;;8.60;99.90;;;;;;4924835;29;20459;-80
2021/05/01 05:01:58;;;;;;;28.70;25.70;;;8.60;99.90;;;;;;4924695;29;20479;-80
2021/05/01 05:04:25;;;;;;;28.20;25.37;;;8.60;99.90;;;;;;4929016;29;20451;-80
2021/05/01 05:06:53;;;;;;;29.70;26.57;;;8.60;99.90;;;;;;4924583;29;20522;-80
2021/05/01 05:09:23;;;;;;;30.50;27.50;;;8.60;99.90;;;;;;4924388;29;20492;-80
2021/05/01 05:11:50;;;;;;;29.33;26.33;;;8.60;99.90;;;;;;4924927;29;20490;-80
2021/05/01 05:14:17;;;;;;;29.50;26.60;;;8.60;99.90;;;;;;4924619;29;20490;-80
2021/05/01 05:16:44;;;;;;;29.07;26.10;;;8.60;99.90;;;;;;4927674;29;20483;-80
2021/05/01 05:19:11;;;;;;;29.90;26.70;;;8.60;99.90;;;;;;4924550;29;20457;-80
2021/05/01 05:21:38;;;;;;;33.17;29.87;;;8.60;99.90;;;;;;4924870;29;20562;-80
2021/05/01 05:24:07;;;;;;;29.20;26.07;;;8.60;99.90;;;;;;4924289;29;20504;-80
2021/05/01 05:26:34;;;;;;;29.97;26.93;;;8.60;99.90;;;;;;4924288;29;20460;-80
2021/05/01 05:29:02;;;;;;;29.77;26.67;;;8.60;99.90;;;;;;4924624;29;20452;-80
2021/05/01 05:31:29;;;;;;;32.60;29.17;;;8.60;99.90;;;;;;4924164;29;20546;-80
2021/05/01 05:33:56;;;;;;;30.67;27.30;;;8.60;99.90;;;;;;4923204;29;20504;-80
2021/05/01 05:36:23;;;;;;;30.37;27.30;;;8.60;99.90;;;;;;4923331;29;20476;-80
2021/05/01 05:38:54;;;;;;;30.83;27.53;;;8.70;99.90;;;;;;4923822;29;20531;-80
2021/05/01 05:41:23;;;;;;;31.00;27.87;;;8.60;99.90;;;;;;4925111;29;20915;-80
2021/05/01 05:43:55;;;;;;;32.27;28.77;;;8.70;99.90;;;;;;4933238;29;20476;-80
2021/05/01 05:46:23;;;;;;;32.80;29.60;;;8.60;99.90;;;;;;4923803;29;20456;-81
2021/05/01 05:48:51;;;;;;;30.33;27.20;;;8.70;99.90;;;;;;4931346;29;20455;-81
2021/05/01 05:51:18;;;;;;;32.03;28.33;;;8.60;99.90;;;;;;4941261;29;20494;-81
2021/05/01 05:53:47;;;;;;;40.10;35.45;;;8.60;99.90;;;;;;4942490;29;20524;-81
2021/05/01 05:56:14;;;;;;;31.67;28.20;;;8.70;99.90;;;;;;4942768;29;20220;-81
2021/05/01 05:58:42;;;;;;;33.40;29.80;;;8.70;99.90;;;;;;4942748;29;20459;-81
2021/05/01 06:01:11;;;;;;;31.20;27.10;;;8.70;99.90;;;;;;4943238;29;20870;-81
2021/05/01 06:03:40;;;;;;;34.78;29.73;;;8.70;99.90;;;;;;4942962;29;20524;-80
2021/05/01 06:06:12;;;;;;;31.17;27.83;;;8.80;99.90;;;;;;4942113;29;20614;-81
2021/05/01 06:08:39;;;;;;;30.90;27.40;;;8.90;99.90;;;;;;4944000;29;20427;-81
2021/05/01 06:11:09;;;;;;;30.80;27.50;;;8.80;99.90;;;;;;4943181;29;20458;-81
2021/05/01 06:13:36;;;;;;;33.50;29.60;;;8.90;99.90;;;;;;4928174;29;20487;-81
2021/05/01 06:16:05;;;;;;;32.13;28.57;;;8.90;99.90;;;;;;4931570;29;20611;-81
2021/05/01 06:18:36;;;;;;;30.63;27.30;;;8.90;99.90;;;;;;4924424;29;20508;-81
2021/05/01 06:21:04;;;;;;;31.80;28.60;;;8.90;99.90;;;;;;4924129;29;20468;-81
2021/05/01 06:23:31;;;;;;;32.83;29.30;;;9.00;99.90;;;;;;4933637;29;20483;-81
2021/05/01 06:26:02;;;;;;;30.83;27.57;;;9.00;99.90;;;;;;4943640;29;20454;-82
2021/05/01 06:28:30;;;;;;;32.87;29.47;;;9.10;99.90;;;;;;4943999;29;20455;-81
2021/05/01 06:31:01;;;;;;;31.40;28.13;;;9.10;99.90;;;;;;4943825;29;20947;-81
2021/05/01 06:33:29;;;;;;;30.27;26.97;;;9.20;99.90;;;;;;4944992;29;20566;-81
2021/05/01 06:35:57;;;;;;;31.87;28.37;;;9.30;99.90;;;;;;4939842;29;20485;-81
2021/05/01 06:38:27;;;;;;;34.53;30.77;;;9.40;99.90;;;;;;4942282;29;20478;-81
2021/05/01 06:40:58;;;;;;;39.70;34.87;;;9.50;99.90;;;;;;4925595;29;20427;-82
2021/05/01 06:43:44;;;;;;;35.73;30.77;;;9.60;99.90;;;;;;4925023;29;20854;-82
2021/05/01 06:46:17;;;;;;;35.43;31.27;;;9.90;99.90;;;;;;4931190;29;20463;-81
2021/05/01 06:48:48;;;;;;;36.67;31.60;;;10.10;99.90;;;;;;4941387;29;20463;-82
2021/05/01 06:51:16;;;;;;;41.30;34.53;;;10.20;99.90;;;;;;4941290;29;20459;-81
2021/05/01 06:53:43;;;;;;;41.80;36.90;;;10.30;99.90;;;;;;4924137;29;20544;-81
2021/05/01 06:56:14;;;;;;;39.47;33.47;;;10.40;99.90;;;;;;4932312;29;20840;-81
2021/05/01 06:58:42;;;;;;;41.90;35.50;;;10.50;99.90;;;;;;4943245;29;20852;-82
2021/05/01 07:01:11;;;;;;;38.30;32.20;;;10.60;99.90;;;;;;4944650;29;20440;-82
2021/05/01 07:03:41;;;;;;;40.03;33.73;;;10.50;99.90;;;;;;4944097;29;20494;-81
2021/05/01 07:06:10;;;;;;;38.93;33.40;;;10.60;99.90;;;;;;4937792;29;20453;-81
2021/05/01 07:08:42;;;;;;;41.23;33.90;;;10.60;99.90;;;;;;4923485;29;20473;-81
2021/05/01 07:11:10;;;;;;;40.03;34.27;;;10.70;99.90;;;;;;4942714;29;20470;-80
2021/05/01 07:13:38;;;;;;;41.83;35.80;;;10.70;99.90;;;;;;4943055;29;20475;-80
2021/05/01 07:16:10;;;;;;;37.00;32.67;;;10.80;99.90;;;;;;4945914;29;20499;-80
2021/05/01 07:18:39;;;;;;;45.23;38.03;;;10.80;99.90;;;;;;4932995;29;20457;-80
2021/05/01 07:21:08;;;;;;;50.67;39.60;;;10.90;99.90;;;;;;4931469;29;20448;-81
2021/05/01 07:23:36;;;;;;;49.90;40.97;;;11.10;99.90;;;;;;4947327;29;20483;-81
2021/05/01 07:26:05;;;;;;;56.87;44.57;;;11.30;99.90;;;;;;4946707;29;20929;-81
2021/05/01 07:28:37;;;;;;;52.90;43.57;;;11.40;99.90;;;;;;4945470;29;20553;-81
2021/05/01 07:31:08;;;;;;;57.30;44.13;;;11.70;99.90;;;;;;4945834;29;20448;-81
2021/05/01 07:33:43;;;;;;;56.83;43.30;;;11.90;99.90;;;;;;4945853;29;21060;-82
2021/05/01 07:36:12;;;;;;;61.73;44.17;;;12.00;99.90;;;;;;4947561;29;20534;-81
2021/05/01 07:38:43;;;;;;;55.27;43.73;;;12.00;99.90;;;;;;4945785;29;20447;-81
2021/05/01 07:41:13;;;;;;;54.80;43.47;;;12.20;99.90;;;;;;4930776;29;20493;-81
2021/05/01 07:43:46;;;;;;;62.53;45.03;;;12.30;99.90;;;;;;4926934;29;20484;-81
2021/05/01 07:46:15;;;;;;;54.23;43.70;;;12.50;99.90;;;;;;4926741;29;20453;-81
2021/05/01 07:48:44;;;;;;;57.43;43.93;;;12.60;99.90;;;;;;4927789;29;20823;-82
2021/05/01 07:51:11;;;;;;;60.00;45.50;;;12.70;99.90;;;;;;4937566;29;20445;-80
2021/05/01 07:53:39;;;;;;;60.67;47.50;;;12.80;99.90;;;;;;4947714;29;20526;-80
2021/05/01 07:56:07;;;;;;;63.70;46.70;;;12.90;99.90;;;;;;4945211;29;20902;-80
2021/05/01 07:58:34;;;;;;;62.13;46.70;;;13.10;99.90;;;;;;4945690;29;20466;-81
2021/05/01 08:01:01;;;;;;;58.60;44.50;;;13.30;99.90;;;;;;4950223;29;20460;-82
2021/05/01 08:03:33;;;;;;;60.40;46.13;;;13.40;99.90;;;;;;4945323;29;20457;-81
2021/05/01 08:06:00;;;;;;;63.00;48.27;;;13.50;99.90;;;;;;4937477;29;20457;-81
2021/05/01 08:08:35;;;;;;;61.57;45.27;;;13.50;99.90;;;;;;4922451;29;20451;-80
2021/05/01 08:11:04;;;;;;;59.07;45.90;;;13.50;99.90;;;;;;4925652;29;20498;-81
2021/05/01 08:13:32;;;;;;;62.67;46.30;;;13.50;99.90;;;;;;4929049;29;20467;-82
2021/05/01 08:15:59;;;;;;;61.17;48.50;;;13.40;99.90;;;;;;4940300;29;20465;-81
2021/05/01 08:18:27;;;;;;;57.37;44.10;;;13.50;99.90;;;;;;4920907;29;20505;-81
2021/05/01 08:20:54;;;;;;;66.47;46.40;;;13.60;99.90;;;;;;4922740;29;20552;-81
2021/05/01 08:23:24;;;;;;;61.33;47.90;;;13.60;99.90;;;;;;4928223;29;20447;-81
2021/05/01 08:25:51;;;;;;;64.23;47.13;;;13.70;99.90;;;;;;4924287;29;20449;-79
2021/05/01 08:28:23;;;;;;;59.83;45.53;;;13.70;99.90;;;;;;4921738;29;20423;-80
2021/05/01 08:30:50;;;;;;;57.67;45.00;;;13.70;99.90;;;;;;4924259;29;20423;-81
2021/05/01 08:33:17;;;;;;;59.90;46.33;;;13.70;99.90;;;;;;4923137;29;20473;-80
2021/05/01 08:35:44;;;;;;;58.10;44.20;;;13.60;99.90;;;;;;4924018;29;20439;-80
2021/05/01 08:38:12;;;;;;;63.70;46.67;;;13.60;99.90;;;;;;4922890;29;20553;-80
2021/05/01 08:40:39;;;;;;;58.80;45.53;;;13.60;99.90;;;;;;4922409;29;20516;-80
2021/05/01 08:43:06;;;;;;;61.60;49.17;;;13.50;99.90;;;;;;4923215;29;20507;-79
2021/05/01 08:45:34;;;;;;;65.07;50.07;;;13.40;99.90;;;;;;4922267;29;20460;-82
2021/05/01 08:48:03;;;;;;;61.40;47.27;;;13.40;99.90;;;;;;4935372;29;20956;-82
2021/05/01 08:50:44;;;;;;;59.95;49.85;;;13.20;99.90;;;;;;4918736;29;20455;-82
2021/05/01 08:53:11;;;;;;;58.30;46.67;;;13.20;99.90;;;;;;4921480;29;20225;-82
2021/05/01 08:55:39;;;;;;;61.40;47.17;;;13.00;99.90;;;;;;4919558;29;20482;-81
2021/05/01 08:58:09;;;;;;;62.53;51.00;;;12.90;99.90;;;;;;4919361;29;20431;-81
2021/05/01 09:00:39;;;;;;;69.55;55.15;;;12.70;99.90;;;;;;4918088;29;20522;-81
2021/05/01 09:03:09;;;;;;;64.10;48.00;;;12.70;99.90;;;;;;4919319;29;20271;-81
2021/05/01 09:05:39;;;;;;;65.63;52.00;;;12.60;99.90;;;;;;4919658;29;20427;-81
2021/05/01 09:08:09;;;;;;;72.70;53.37;;;12.50;99.90;;;;;;4919779;29;20525;-82
2021/05/01 09:10:45;;;;;;;73.87;56.53;;;12.40;99.90;;;;;;4919635;29;20448;-81
2021/05/01 09:13:17;;;;;;;69.90;55.37;;;12.40;99.90;;;;;;4919725;29;20488;-81
2021/05/01 09:16:02;;;;;;;72.80;54.40;;;12.30;99.90;;;;;;4919173;29;20928;-81
2021/05/01 09:18:46;;;;;;;80.10;60.27;;;12.30;99.90;;;;;;4920079;29;20500;-79
2021/05/01 09:21:16;;;;;;;71.13;54.67;;;12.30;99.90;;;;;;4920577;29;20481;-80
2021/05/01 09:23:43;;;;;;;76.63;56.10;;;12.40;99.90;;;;;;4923810;29;20504;-80
2021/05/01 09:26:10;;;;;;;64.37;51.17;;;12.30;99.90;;;;;;4923653;29;20440;-80
2021/05/01 09:28:45;;;;;;;73.60;54.37;;;12.40;99.90;;;;;;4918645;29;20491;-80
2021/05/01 09:31:15;;;;;;;58.83;47.10;;;12.40;99.90;;;;;;4918898;29;20489;-80
2021/05/01 09:33:43;;;;;;;56.43;45.60;;;12.40;99.90;;;;;;4918427;29;20481;-80
2021/05/01 09:36:13;;;;;;;52.53;43.50;;;12.40;99.90;;;;;;4918813;29;20989;-80
2021/05/01 09:38:42;;;;;;;52.93;41.70;;;12.40;99.90;;;;;;4920281;29;20464;-80
2021/05/01 09:41:13;;;;;;;53.40;43.80;;;12.50;99.90;;;;;;4918172;29;20461;-80
2021/05/01 09:44:02;;;;;;;50.07;41.27;;;12.70;99.90;;;;;;4918490;29;20476;-80
2021/05/01 09:46:32;;;;;;;51.57;40.87;;;12.80;99.90;;;;;;4911425;29;20501;-80
2021/05/01 09:49:06;;;;;;;48.73;41.93;;;13.00;99.90;;;;;;4919385;29;20576;-80
2021/05/01 09:51:47;;;;;;;47.80;40.60;;;13.00;99.90;;;;;;4919263;29;20453;-80
2021/05/01 09:54:16;;;;;;;43.03;37.67;;;13.10;99.90;;;;;;4920433;29;20437;-80
2021/05/01 09:56:45;;;;;;;42.40;37.73;;;13.10;99.90;;;;;;4925142;29;20532;-80
2021/05/01 09:59:13;;;;;;;48.33;41.10;;;13.00;99.90;;;;;;4919816;29;20431;-80
2021/05/01 10:01:42;;;;;;;52.80;41.33;;;13.00;99.90;;;;;;4918151;29;20453;-80
2021/05/01 10:04:16;;;;;;;47.20;40.33;;;12.90;99.90;;;;;;4918330;29;20939;-81
2021/05/01 10:06:49;;;;;;;43.73;38.03;;;13.00;99.90;;;;;;4918554;29;20430;-80
2021/05/01 10:09:24;;;;;;;41.90;35.03;;;13.10;99.90;;;;;;4932199;29;20460;-80
2021/05/01 10:11:53;;;;;;;42.60;36.10;;;13.20;99.90;;;;;;4917156;29;20470;-80
2021/05/01 10:14:36;;;;;;;41.17;34.50;;;13.40;99.90;;;;;;4919688;29;20207;-80
2021/05/01 10:17:05;;;;;;;43.13;37.77;;;13.60;99.90;;;;;;4917933;29;20444;-80
2021/05/01 10:19:45;;;;;;;44.33;38.03;;;13.70;99.90;;;;;;4918659;29;20447;-80
2021/05/01 10:22:24;;;;;;;46.85;41.58;;;13.70;99.90;;;;;;4917114;29;21019;-80
2021/05/01 10:24:52;;;;;;;46.50;37.80;;;13.80;99.90;;;;;;4918375;29;20196;-80
2021/05/01 10:27:20;;;;;;;41.33;36.30;;;13.90;99.90;;;;;;4922206;29;20481;-80
2021/05/01 10:30:03;;;;;;;40.70;33.47;;;13.80;99.90;;;;;;4922341;29;20456;-80
2021/05/01 10:32:42;;;;;;;38.73;34.63;;;13.70;99.90;;;;;;4924703;29;20534;-80
2021/05/01 10:35:11;;;;;;;37.97;33.23;;;13.70;99.90;;;;;;4936675;29;20448;-80
2021/05/01 10:37:45;;;;;;;35.90;31.40;;;13.70;99.90;;;;;;4937466;29;20963;-80
2021/05/01 10:40:13;;;;;;;37.10;32.80;;;13.60;99.90;;;;;;4937787;29;20452;-80
2021/05/01 10:42:40;;;;;;;34.20;30.57;;;13.60;99.90;;;;;;4936982;29;20593;-80
2021/05/01 10:45:09;;;;;;;37.00;33.00;;;13.60;99.90;;;;;;4936893;29;20829;-80
2021/05/01 10:47:37;;;;;;;33.40;29.80;;;13.50;99.90;;;;;;4938631;29;20487;-80
2021/05/01 10:50:19;;;;;;;37.27;33.37;;;13.50;99.90;;;;;;4936921;29;20511;-80
2021/05/01 10:52:49;;;;;;;34.00;30.50;;;13.50;99.90;;;;;;4939317;29;20530;-80
2021/05/01 10:55:16;;;;;;;31.80;28.40;;;13.50;99.90;;;;;;4934366;29;20456;-81
2021/05/01 10:57:57;;;;;;;33.90;30.23;;;13.50;99.90;;;;;;4922302;29;20459;-80
2021/05/01 11:00:25;;;;;;;30.37;27.07;;;13.50;99.90;;;;;;4926086;29;20843;-80
2021/05/01 11:03:00;;;;;;;30.77;27.67;;;13.50;99.90;;;;;;4923045;29;20469;-81
2021/05/01 11:05:32;;;;;;;31.03;27.90;;;13.50;99.90;;;;;;4923300;29;20403;-80
2021/05/01 11:08:03;;;;;;;30.10;27.00;;;13.50;99.90;;;;;;4922910;29;20484;-81
2021/05/01 11:10:34;;;;;;;30.03;26.90;;;13.50;99.90;;;;;;4923100;29;20771;-80
2021/05/01 11:13:04;;;;;;;31.40;28.03;;;13.50;99.90;;;;;;4921370;29;20447;-80
2021/05/01 11:15:45;;;;;;;29.57;26.47;;;13.60;99.90;;;;;;4921892;29;20431;-80
2021/05/01 11:18:20;;;;;;;31.30;27.80;;;13.60;99.90;;;;;;4926191;29;20605;-80
2021/05/01 11:20:49;;;;;;;30.00;26.77;;;13.80;99.90;;;;;;4925133;29;20419;-80
2021/05/01 11:23:17;;;;;;;31.93;28.67;;;13.90;99.90;;;;;;4942216;28;20491;-80
2021/05/01 11:25:44;;;;;;;31.17;27.83;;;13.90;99.90;;;;;;4941491;29;20506;-80
2021/05/01 11:28:13;;;;;;;31.47;28.17;;;14.00;99.90;;;;;;4942342;29;20561;-80
2021/05/01 11:30:42;;;;;;;30.08;27.08;;;14.10;99.90;;;;;;4939877;29;20435;-80
2021/05/01 11:33:11;;;;;;;27.73;24.87;;;14.20;99.90;;;;;;4941276;29;20220;-80
2021/05/01 11:35:41;;;;;;;28.33;25.43;;;14.30;99.90;;;;;;4942265;29;20805;-80
2021/05/01 11:38:16;;;;;;;29.10;26.00;;;14.40;99.90;;;;;;4940066;29;20474;-80
2021/05/01 11:40:47;;;;;;;30.83;27.73;;;14.40;99.90;;;;;;4940893;29;20445;-80
2021/05/01 11:43:15;;;;;;;28.93;25.93;;;14.60;99.90;;;;;;4941583;29;20208;-80
2021/05/01 11:45:47;;;;;;;29.77;26.67;;;14.60;99.90;;;;;;4940560;29;21024;-80
2021/05/01 11:48:25;;;;;;;26.87;24.10;;;14.60;99.90;;;;;;4940870;29;20411;-80
2021/05/01 11:50:53;;;;;;;27.00;24.10;;;14.60;99.90;;;;;;4940794;29;20471;-80
2021/05/01 11:53:37;;;;;;;25.83;23.13;;;14.60;99.90;;;;;;4959934;29;20473;-80
2021/05/01 11:56:16;;;;;;;25.37;22.73;;;14.50;99.90;;;;;;4961327;28;20398;-80
2021/05/01 11:58:43;;;;;;;24.43;21.93;;;14.40;99.90;;;;;;4959587;28;20447;-80
2021/05/01 12:01:16;;;;;;;25.07;22.47;;;14.30;99.90;;;;;;4960105;28;20458;-80
2021/05/01 12:03:54;;;;;;;26.00;23.30;;;14.00;99.90;;;;;;4958551;28;20479;-80
2021/05/01 12:06:32;;;;;;;27.70;24.67;;;13.90;99.90;;;;;;4960325;28;20445;-80
2021/05/01 12:09:04;;;;;;;28.13;25.40;;;13.80;99.90;;;;;;4951780;28;20430;-80
2021/05/01 12:11:34;;;;;;;27.77;24.77;;;13.70;99.90;;;;;;4940262;29;20483;-80
2021/05/01 12:14:08;;;;;;;28.27;25.40;;;13.70;99.90;;;;;;4954118;29;20508;-80
2021/05/01 12:16:36;;;;;;;25.30;22.60;;;13.70;99.90;;;;;;4958914;28;20462;-79
2021/05/01 12:19:04;;;;;;;25.80;23.30;;;13.70;99.90;;;;;;4964182;28;20459;-79
2021/05/01 12:21:41;;;;;;;25.13;22.63;;;13.80;99.90;;;;;;4958148;28;20460;-79
2021/05/01 12:24:24;;;;;;;26.23;23.53;;;13.80;99.90;;;;;;4946436;29;20437;-79
2021/05/01 12:26:52;;;;;;;25.77;23.07;;;13.90;99.90;;;;;;4944756;29;20450;-80
2021/05/01 12:29:26;;;;;;;25.40;22.70;;;14.00;99.90;;;;;;4926504;29;20453;-80
2021/05/01 12:31:55;;;;;;;25.03;22.37;;;14.10;99.90;;;;;;4938889;29;20431;-81
2021/05/01 12:34:43;;;;;;;25.77;22.80;;;14.20;99.90;;;;;;4920425;29;20452;-80
2021/05/01 12:37:12;;;;;;;24.67;22.07;;;14.30;99.90;;;;;;4920522;29;20462;-80
2021/05/01 12:39:41;;;;;;;25.47;22.83;;;14.40;99.90;;;;;;4920401;29;20432;-80
2021/05/01 12:42:20;;;;;;;28.30;25.30;;;14.60;99.90;;;;;;4921889;29;20496;-80
2021/05/01 12:44:48;;;;;;;26.73;23.87;;;14.70;99.90;;;;;;4921786;29;20453;-80